sensor_id;sensor_type;location;lat;lon;timestamp;P1;durP1;ratioP1;P2;durP2;ratioP2
7338;SDS011;33747;49.524;8.390;2022-08-21T00:00:20;5.88;;;2.85;;
7338;SDS011;33747;49.524;8.390;2022-08-21T00:02:53;8.50;;;3.10;;
7338;SDS011;33747;49.524;8.390;2022-08-21T00:05:20;10.07;;;3.53;;
7338;SDS011;33747;49.524;8.390;2022-08-21T00:07:46;9.88;;;3.08;;
7338;SDS011;33747;49.524;8.390;2022-08-21T00:10:12;7.32;;;2.88;;
7338;SDS011;33747;49.524;8.390;2022-08-21T00:12:38;6.43;;;2.92;;
7338;SDS011;33747;49.524;8.390;2022-08-21T00:15:06;9.75;;;3.00;;
7338;SDS011;33747;49.524;8.390;2022-08-21T00:17:32;12.35;;;4.03;;
7338;SDS011;33747;49.524;8.390;2022-08-21T00:19:57;6.50;;;3.30;;
7338;SDS011;33747;49.524;8.390;2022-08-21T00:22:23;6.40;;;2.90;;
7338;SDS011;33747;49.524;8.390;2022-08-21T00:24:49;9.80;;;3.55;;
7338;SDS011;33747;49.524;8.390;2022-08-21T00:27:14;8.25;;;2.70;;
7338;SDS011;33747;49.524;8.390;2022-08-21T00:29:40;7.80;;;3.10;;
7338;SDS011;33747;49.524;8.390;2022-08-21T00:32:05;9.38;;;2.75;;
7338;SDS011;33747;49.524;8.390;2022-08-21T00:34:31;11.73;;;3.03;;
7338;SDS011;33747;49.524;8.390;2022-08-21T00:36:56;11.98;;;3.35;;
7338;SDS011;33747;49.524;8.390;2022-08-21T00:39:21;8.27;;;3.00;;
7338;SDS011;33747;49.524;8.390;2022-08-21T00:41:47;8.40;;;3.13;;
7338;SDS011;33747;49.524;8.390;2022-08-21T00:44:13;5.63;;;2.75;;
7338;SDS011;33747;49.524;8.390;2022-08-21T00:46:40;7.53;;;2.75;;
7338;SDS011;33747;49.524;8.390;2022-08-21T00:49:07;11.88;;;3.05;;
7338;SDS011;33747;49.524;8.390;2022-08-21T00:51:37;11.95;;;3.83;;
7338;SDS011;33747;49.524;8.390;2022-08-21T00:54:05;6.72;;;2.85;;
7338;SDS011;33747;49.524;8.390;2022-08-21T00:56:31;9.55;;;3.10;;
7338;SDS011;33747;49.524;8.390;2022-08-21T00:58:56;4.75;;;2.50;;
7338;SDS011;33747;49.524;8.390;2022-08-21T01:01:23;9.55;;;3.30;;
7338;SDS011;33747;49.524;8.390;2022-08-21T01:03:48;7.93;;;3.13;;
7338;SDS011;33747;49.524;8.390;2022-08-21T01:06:14;7.75;;;3.08;;
7338;SDS011;33747;49.524;8.390;2022-08-21T01:08:39;8.68;;;3.85;;
7338;SDS011;33747;49.524;8.390;2022-08-21T01:11:05;12.68;;;3.88;;
7338;SDS011;33747;49.524;8.390;2022-08-21T01:13:32;10.85;;;3.95;;
7338;SDS011;33747;49.524;8.390;2022-08-21T01:15:59;10.13;;;3.13;;
7338;SDS011;33747;49.524;8.390;2022-08-21T01:18:28;5.22;;;2.90;;
7338;SDS011;33747;49.524;8.390;2022-08-21T01:21:01;10.32;;;3.45;;
7338;SDS011;33747;49.524;8.390;2022-08-21T01:23:37;10.85;;;3.28;;
7338;SDS011;33747;49.524;8.390;2022-08-21T01:26:04;7.90;;;3.22;;
7338;SDS011;33747;49.524;8.390;2022-08-21T01:28:33;9.45;;;3.20;;
7338;SDS011;33747;49.524;8.390;2022-08-21T01:31:01;12.27;;;3.47;;
7338;SDS011;33747;49.524;8.390;2022-08-21T01:33:28;9.73;;;3.55;;
7338;SDS011;33747;49.524;8.390;2022-08-21T01:35:53;14.07;;;3.95;;
7338;SDS011;33747;49.524;8.390;2022-08-21T01:38:18;7.75;;;2.97;;
7338;SDS011;33747;49.524;8.390;2022-08-21T01:40:44;11.88;;;3.17;;
7338;SDS011;33747;49.524;8.390;2022-08-21T01:43:10;5.93;;;3.38;;
7338;SDS011;33747;49.524;8.390;2022-08-21T01:45:35;6.25;;;3.00;;
7338;SDS011;33747;49.524;8.390;2022-08-21T01:48:01;8.43;;;3.38;;
7338;SDS011;33747;49.524;8.390;2022-08-21T01:50:27;6.38;;;2.58;;
7338;SDS011;33747;49.524;8.390;2022-08-21T01:52:52;8.57;;;3.10;;
7338;SDS011;33747;49.524;8.390;2022-08-21T01:55:18;11.18;;;3.60;;
7338;SDS011;33747;49.524;8.390;2022-08-21T01:57:45;8.25;;;2.92;;
7338;SDS011;33747;49.524;8.390;2022-08-21T02:00:11;10.13;;;3.47;;
7338;SDS011;33747;49.524;8.390;2022-08-21T02:02:38;7.68;;;3.47;;
7338;SDS011;33747;49.524;8.390;2022-08-21T02:05:06;8.82;;;3.53;;
7338;SDS011;33747;49.524;8.390;2022-08-21T02:07:39;10.20;;;3.55;;
7338;SDS011;33747;49.524;8.390;2022-08-21T02:10:09;7.53;;;3.35;;
7338;SDS011;33747;49.524;8.390;2022-08-21T02:12:35;9.05;;;3.67;;
7338;SDS011;33747;49.524;8.390;2022-08-21T02:15:02;15.27;;;4.13;;
7338;SDS011;33747;49.524;8.390;2022-08-21T02:17:36;10.93;;;4.13;;
7338;SDS011;33747;49.524;8.390;2022-08-21T02:20:02;7.00;;;3.13;;
7338;SDS011;33747;49.524;8.390;2022-08-21T02:22:28;10.75;;;3.70;;
7338;SDS011;33747;49.524;8.390;2022-08-21T02:24:53;12.05;;;3.90;;
7338;SDS011;33747;49.524;8.390;2022-08-21T02:27:19;13.85;;;3.55;;
7338;SDS011;33747;49.524;8.390;2022-08-21T02:29:44;9.32;;;3.60;;
7338;SDS011;33747;49.524;8.390;2022-08-21T02:32:10;13.75;;;4.20;;
7338;SDS011;33747;49.524;8.390;2022-08-21T02:34:35;13.20;;;3.25;;
7338;SDS011;33747;49.524;8.390;2022-08-21T02:37:00;12.30;;;3.95;;
7338;SDS011;33747;49.524;8.390;2022-08-21T02:39:26;10.95;;;3.80;;
7338;SDS011;33747;49.524;8.390;2022-08-21T02:41:51;6.82;;;3.35;;
7338;SDS011;33747;49.524;8.390;2022-08-21T02:44:16;8.73;;;3.35;;
7338;SDS011;33747;49.524;8.390;2022-08-21T02:46:42;9.63;;;3.58;;
7338;SDS011;33747;49.524;8.390;2022-08-21T02:49:07;9.38;;;3.53;;
7338;SDS011;33747;49.524;8.390;2022-08-21T02:51:33;6.22;;;2.75;;
7338;SDS011;33747;49.524;8.390;2022-08-21T02:53:58;7.68;;;3.33;;
7338;SDS011;33747;49.524;8.390;2022-08-21T02:56:24;13.35;;;4.07;;
7338;SDS011;33747;49.524;8.390;2022-08-21T02:58:50;6.05;;;3.45;;
7338;SDS011;33747;49.524;8.390;2022-08-21T03:01:16;10.48;;;3.47;;
7338;SDS011;33747;49.524;8.390;2022-08-21T03:03:43;9.15;;;3.30;;
7338;SDS011;33747;49.524;8.390;2022-08-21T03:06:10;11.55;;;3.85;;
7338;SDS011;33747;49.524;8.390;2022-08-21T03:08:37;10.88;;;3.47;;
7338;SDS011;33747;49.524;8.390;2022-08-21T03:11:02;6.68;;;3.38;;
7338;SDS011;33747;49.524;8.390;2022-08-21T03:13:28;7.28;;;3.50;;
7338;SDS011;33747;49.524;8.390;2022-08-21T03:15:54;13.48;;;4.63;;
7338;SDS011;33747;49.524;8.390;2022-08-21T03:18:19;10.45;;;3.80;;
7338;SDS011;33747;49.524;8.390;2022-08-21T03:20:45;7.38;;;3.58;;
7338;SDS011;33747;49.524;8.390;2022-08-21T03:23:11;6.85;;;3.40;;
7338;SDS011;33747;49.524;8.390;2022-08-21T03:25:37;8.77;;;3.72;;
7338;SDS011;33747;49.524;8.390;2022-08-21T03:28:04;9.65;;;3.05;;
7338;SDS011;33747;49.524;8.390;2022-08-21T03:30:34;13.40;;;3.60;;
7338;SDS011;33747;49.524;8.390;2022-08-21T03:33:00;15.50;;;3.97;;
7338;SDS011;33747;49.524;8.390;2022-08-21T03:35:26;6.28;;;3.30;;
7338;SDS011;33747;49.524;8.390;2022-08-21T03:37:52;9.63;;;3.70;;
7338;SDS011;33747;49.524;8.390;2022-08-21T03:40:18;8.77;;;3.28;;
7338;SDS011;33747;49.524;8.390;2022-08-21T03:42:45;8.93;;;3.70;;
7338;SDS011;33747;49.524;8.390;2022-08-21T03:45:12;10.15;;;3.67;;
7338;SDS011;33747;49.524;8.390;2022-08-21T03:47:38;9.18;;;3.90;;
7338;SDS011;33747;49.524;8.390;2022-08-21T03:50:03;10.20;;;3.63;;
7338;SDS011;33747;49.524;8.390;2022-08-21T03:52:29;12.23;;;3.53;;
7338;SDS011;33747;49.524;8.390;2022-08-21T03:54:55;11.73;;;3.10;;
7338;SDS011;33747;49.524;8.390;2022-08-21T03:57:20;8.82;;;3.90;;
7338;SDS011;33747;49.524;8.390;2022-08-21T03:59:46;6.80;;;3.25;;
7338;SDS011;33747;49.524;8.390;2022-08-21T04:02:12;6.97;;;3.58;;
7338;SDS011;33747;49.524;8.390;2022-08-21T04:04:39;9.77;;;3.08;;
7338;SDS011;33747;49.524;8.390;2022-08-21T04:07:04;8.60;;;3.58;;
7338;SDS011;33747;49.524;8.390;2022-08-21T04:09:29;6.90;;;3.10;;
7338;SDS011;33747;49.524;8.390;2022-08-21T04:11:55;10.38;;;3.60;;
7338;SDS011;33747;49.524;8.390;2022-08-21T04:14:21;7.00;;;3.20;;
7338;SDS011;33747;49.524;8.390;2022-08-21T04:16:47;13.70;;;3.15;;
7338;SDS011;33747;49.524;8.390;2022-08-21T04:19:12;10.38;;;3.08;;
7338;SDS011;33747;49.524;8.390;2022-08-21T04:21:38;8.38;;;3.33;;
7338;SDS011;33747;49.524;8.390;2022-08-21T04:24:05;9.25;;;3.38;;
7338;SDS011;33747;49.524;8.390;2022-08-21T04:26:32;9.45;;;3.83;;
7338;SDS011;33747;49.524;8.390;2022-08-21T04:28:59;14.05;;;2.97;;
7338;SDS011;33747;49.524;8.390;2022-08-21T04:31:24;10.68;;;3.83;;
7338;SDS011;33747;49.524;8.390;2022-08-21T04:33:50;5.85;;;2.97;;
7338;SDS011;33747;49.524;8.390;2022-08-21T04:36:16;9.40;;;3.35;;
7338;SDS011;33747;49.524;8.390;2022-08-21T04:38:41;10.07;;;2.92;;
7338;SDS011;33747;49.524;8.390;2022-08-21T04:41:07;5.70;;;3.03;;
7338;SDS011;33747;49.524;8.390;2022-08-21T04:46:05;8.25;;;3.60;;
7338;SDS011;33747;49.524;8.390;2022-08-21T04:48:31;11.27;;;3.15;;
7338;SDS011;33747;49.524;8.390;2022-08-21T04:51:09;5.50;;;3.25;;
7338;SDS011;33747;49.524;8.390;2022-08-21T04:56:14;7.97;;;3.33;;
7338;SDS011;33747;49.524;8.390;2022-08-21T04:58:41;10.95;;;3.28;;
7338;SDS011;33747;49.524;8.390;2022-08-21T05:01:09;6.70;;;2.72;;
7338;SDS011;33747;49.524;8.390;2022-08-21T05:03:38;11.27;;;3.65;;
7338;SDS011;33747;49.524;8.390;2022-08-21T05:06:06;7.30;;;3.20;;
7338;SDS011;33747;49.524;8.390;2022-08-21T05:08:33;6.85;;;3.35;;
7338;SDS011;33747;49.524;8.390;2022-08-21T05:10:59;10.55;;;3.90;;
7338;SDS011;33747;49.524;8.390;2022-08-21T05:13:24;13.90;;;3.78;;
7338;SDS011;33747;49.524;8.390;2022-08-21T05:15:49;10.93;;;3.45;;
7338;SDS011;33747;49.524;8.390;2022-08-21T05:18:15;14.38;;;3.97;;
7338;SDS011;33747;49.524;8.390;2022-08-21T05:20:41;7.32;;;3.78;;
7338;SDS011;33747;49.524;8.390;2022-08-21T05:25:53;9.27;;;3.80;;
7338;SDS011;33747;49.524;8.390;2022-08-21T05:28:20;7.00;;;3.45;;
7338;SDS011;33747;49.524;8.390;2022-08-21T05:30:45;7.45;;;3.50;;
7338;SDS011;33747;49.524;8.390;2022-08-21T05:33:10;6.13;;;3.55;;
7338;SDS011;33747;49.524;8.390;2022-08-21T05:35:36;10.35;;;3.60;;
7338;SDS011;33747;49.524;8.390;2022-08-21T05:38:03;9.45;;;3.13;;
7338;SDS011;33747;49.524;8.390;2022-08-21T05:40:28;8.38;;;2.85;;
7338;SDS011;33747;49.524;8.390;2022-08-21T05:42:54;12.77;;;3.33;;
7338;SDS011;33747;49.524;8.390;2022-08-21T05:45:21;11.75;;;3.13;;
7338;SDS011;33747;49.524;8.390;2022-08-21T05:47:47;8.30;;;3.05;;
7338;SDS011;33747;49.524;8.390;2022-08-21T05:50:12;6.50;;;2.55;;
7338;SDS011;33747;49.524;8.390;2022-08-21T05:52:38;11.20;;;3.03;;
7338;SDS011;33747;49.524;8.390;2022-08-21T05:55:03;10.73;;;2.78;;
7338;SDS011;33747;49.524;8.390;2022-08-21T05:57:29;7.22;;;3.13;;
7338;SDS011;33747;49.524;8.390;2022-08-21T05:59:54;7.57;;;2.97;;
7338;SDS011;33747;49.524;8.390;2022-08-21T06:02:20;11.88;;;2.55;;
7338;SDS011;33747;49.524;8.390;2022-08-21T06:04:46;10.40;;;2.70;;
7338;SDS011;33747;49.524;8.390;2022-08-21T06:07:12;6.97;;;3.00;;
7338;SDS011;33747;49.524;8.390;2022-08-21T06:09:37;4.70;;;2.50;;
7338;SDS011;33747;49.524;8.390;2022-08-21T06:12:10;11.15;;;3.00;;
7338;SDS011;33747;49.524;8.390;2022-08-21T06:14:37;10.35;;;2.75;;
7338;SDS011;33747;49.524;8.390;2022-08-21T06:17:03;10.02;;;3.08;;
7338;SDS011;33747;49.524;8.390;2022-08-21T06:19:29;5.38;;;3.22;;
7338;SDS011;33747;49.524;8.390;2022-08-21T06:21:55;6.00;;;3.03;;
7338;SDS011;33747;49.524;8.390;2022-08-21T06:24:20;6.88;;;2.97;;
7338;SDS011;33747;49.524;8.390;2022-08-21T06:26:46;6.20;;;2.80;;
7338;SDS011;33747;49.524;8.390;2022-08-21T06:29:12;8.80;;;2.90;;
7338;SDS011;33747;49.524;8.390;2022-08-21T06:31:41;10.40;;;3.20;;
7338;SDS011;33747;49.524;8.390;2022-08-21T06:34:06;8.73;;;2.92;;
7338;SDS011;33747;49.524;8.390;2022-08-21T06:36:31;8.68;;;2.72;;
7338;SDS011;33747;49.524;8.390;2022-08-21T06:38:57;5.60;;;2.65;;
7338;SDS011;33747;49.524;8.390;2022-08-21T06:41:22;5.43;;;2.75;;
7338;SDS011;33747;49.524;8.390;2022-08-21T06:43:48;7.43;;;2.97;;
7338;SDS011;33747;49.524;8.390;2022-08-21T06:46:13;8.93;;;2.85;;
7338;SDS011;33747;49.524;8.390;2022-08-21T06:48:39;10.35;;;2.80;;
7338;SDS011;33747;49.524;8.390;2022-08-21T06:51:04;6.38;;;3.05;;
7338;SDS011;33747;49.524;8.390;2022-08-21T06:53:30;7.40;;;2.58;;
7338;SDS011;33747;49.524;8.390;2022-08-21T06:55:55;8.73;;;2.58;;
7338;SDS011;33747;49.524;8.390;2022-08-21T06:58:20;6.97;;;3.03;;
7338;SDS011;33747;49.524;8.390;2022-08-21T07:00:47;9.65;;;2.70;;
7338;SDS011;33747;49.524;8.390;2022-08-21T07:05:49;6.65;;;3.03;;
7338;SDS011;33747;49.524;8.390;2022-08-21T07:08:15;12.57;;;3.05;;
7338;SDS011;33747;49.524;8.390;2022-08-21T07:10:41;10.85;;;3.22;;
7338;SDS011;33747;49.524;8.390;2022-08-21T07:13:07;7.13;;;3.08;;
7338;SDS011;33747;49.524;8.390;2022-08-21T07:15:32;7.00;;;3.00;;
7338;SDS011;33747;49.524;8.390;2022-08-21T07:17:58;7.55;;;2.55;;
7338;SDS011;33747;49.524;8.390;2022-08-21T07:20:23;7.78;;;2.90;;
7338;SDS011;33747;49.524;8.390;2022-08-21T07:22:49;6.72;;;2.70;;
7338;SDS011;33747;49.524;8.390;2022-08-21T07:25:14;6.00;;;2.80;;
7338;SDS011;33747;49.524;8.390;2022-08-21T07:27:39;10.30;;;3.40;;
7338;SDS011;33747;49.524;8.390;2022-08-21T07:30:05;14.18;;;3.35;;
7338;SDS011;33747;49.524;8.390;2022-08-21T07:32:31;7.20;;;2.45;;
7338;SDS011;33747;49.524;8.390;2022-08-21T07:34:56;12.45;;;3.83;;
7338;SDS011;33747;49.524;8.390;2022-08-21T07:37:22;8.90;;;3.58;;
7338;SDS011;33747;49.524;8.390;2022-08-21T07:39:47;11.68;;;3.50;;
7338;SDS011;33747;49.524;8.390;2022-08-21T07:42:14;9.20;;;3.53;;
7338;SDS011;33747;49.524;8.390;2022-08-21T07:44:39;7.38;;;3.08;;
7338;SDS011;33747;49.524;8.390;2022-08-21T07:47:05;8.35;;;3.03;;
7338;SDS011;33747;49.524;8.390;2022-08-21T07:49:30;12.27;;;3.28;;
7338;SDS011;33747;49.524;8.390;2022-08-21T07:51:56;7.10;;;3.03;;
7338;SDS011;33747;49.524;8.390;2022-08-21T07:54:21;7.80;;;3.25;;
7338;SDS011;33747;49.524;8.390;2022-08-21T07:56:47;9.95;;;3.00;;
7338;SDS011;33747;49.524;8.390;2022-08-21T07:59:12;9.32;;;2.78;;
7338;SDS011;33747;49.524;8.390;2022-08-21T08:01:37;5.95;;;3.22;;
7338;SDS011;33747;49.524;8.390;2022-08-21T08:04:03;9.80;;;3.40;;
7338;SDS011;33747;49.524;8.390;2022-08-21T08:06:28;8.07;;;3.13;;
7338;SDS011;33747;49.524;8.390;2022-08-21T08:08:55;11.20;;;3.63;;
7338;SDS011;33747;49.524;8.390;2022-08-21T08:11:20;8.48;;;3.67;;
7338;SDS011;33747;49.524;8.390;2022-08-21T08:13:47;10.10;;;3.65;;
7338;SDS011;33747;49.524;8.390;2022-08-21T08:16:14;15.30;;;4.18;;
7338;SDS011;33747;49.524;8.390;2022-08-21T08:18:40;8.73;;;3.35;;
7338;SDS011;33747;49.524;8.390;2022-08-21T08:21:07;9.00;;;3.42;;
7338;SDS011;33747;49.524;8.390;2022-08-21T08:23:33;11.60;;;4.20;;
7338;SDS011;33747;49.524;8.390;2022-08-21T08:25:59;7.28;;;3.92;;
7338;SDS011;33747;49.524;8.390;2022-08-21T08:28:24;12.52;;;4.68;;
7338;SDS011;33747;49.524;8.390;2022-08-21T08:30:50;8.63;;;3.85;;
7338;SDS011;33747;49.524;8.390;2022-08-21T08:33:16;14.60;;;5.05;;
7338;SDS011;33747;49.524;8.390;2022-08-21T08:35:42;11.75;;;4.45;;
7338;SDS011;33747;49.524;8.390;2022-08-21T08:38:10;7.25;;;3.40;;
7338;SDS011;33747;49.524;8.390;2022-08-21T08:40:37;15.95;;;5.22;;
7338;SDS011;33747;49.524;8.390;2022-08-21T08:43:07;10.00;;;4.72;;
7338;SDS011;33747;49.524;8.390;2022-08-21T08:45:34;9.02;;;3.75;;
7338;SDS011;33747;49.524;8.390;2022-08-21T08:48:05;9.00;;;3.63;;
7338;SDS011;33747;49.524;8.390;2022-08-21T08:50:38;8.15;;;3.22;;
7338;SDS011;33747;49.524;8.390;2022-08-21T08:53:05;11.23;;;5.38;;
7338;SDS011;33747;49.524;8.390;2022-08-21T08:55:39;8.77;;;4.05;;
7338;SDS011;33747;49.524;8.390;2022-08-21T08:58:05;9.13;;;4.72;;
7338;SDS011;33747;49.524;8.390;2022-08-21T09:00:33;8.75;;;3.47;;
7338;SDS011;33747;49.524;8.390;2022-08-21T09:02:59;6.40;;;3.40;;
7338;SDS011;33747;49.524;8.390;2022-08-21T09:05:38;7.53;;;3.80;;
7338;SDS011;33747;49.524;8.390;2022-08-21T09:14:08;9.18;;;4.70;;
7338;SDS011;33747;49.524;8.390;2022-08-21T09:16:55;10.45;;;5.05;;
7338;SDS011;33747;49.524;8.390;2022-08-21T09:19:31;15.50;;;5.47;;
7338;SDS011;33747;49.524;8.390;2022-08-21T09:25:07;8.43;;;4.43;;
7338;SDS011;33747;49.524;8.390;2022-08-21T09:27:36;12.73;;;4.88;;
7338;SDS011;33747;49.524;8.390;2022-08-21T09:30:03;12.27;;;5.43;;
7338;SDS011;33747;49.524;8.390;2022-08-21T09:32:31;8.75;;;4.78;;
7338;SDS011;33747;49.524;8.390;2022-08-21T09:43:19;12.07;;;3.22;;
7338;SDS011;33747;49.524;8.390;2022-08-21T09:45:47;10.90;;;3.47;;
7338;SDS011;33747;49.524;8.390;2022-08-21T09:48:15;7.10;;;3.05;;
7338;SDS011;33747;49.524;8.390;2022-08-21T09:50:43;16.63;;;4.20;;
7338;SDS011;33747;49.524;8.390;2022-08-21T09:53:23;15.10;;;2.95;;
7338;SDS011;33747;49.524;8.390;2022-08-21T09:56:00;9.60;;;3.17;;
7338;SDS011;33747;49.524;8.390;2022-08-21T09:58:47;6.18;;;2.58;;
7338;SDS011;33747;49.524;8.390;2022-08-21T10:01:18;14.23;;;2.90;;
7338;SDS011;33747;49.524;8.390;2022-08-21T10:03:46;4.70;;;2.72;;
7338;SDS011;33747;49.524;8.390;2022-08-21T10:06:21;6.90;;;2.80;;
7338;SDS011;33747;49.524;8.390;2022-08-21T10:08:49;12.15;;;2.80;;
7338;SDS011;33747;49.524;8.390;2022-08-21T10:11:15;11.57;;;2.92;;
7338;SDS011;33747;49.524;8.390;2022-08-21T10:24:57;6.22;;;2.50;;
7338;SDS011;33747;49.524;8.390;2022-08-21T10:30:02;6.07;;;2.83;;
7338;SDS011;33747;49.524;8.390;2022-08-21T10:35:08;9.43;;;3.13;;
7338;SDS011;33747;49.524;8.390;2022-08-21T10:40:18;7.18;;;2.72;;
7338;SDS011;33747;49.524;8.390;2022-08-21T10:42:49;6.28;;;2.63;;
7338;SDS011;33747;49.524;8.390;2022-08-21T10:48:06;8.15;;;3.20;;
7338;SDS011;33747;49.524;8.390;2022-08-21T10:50:45;7.63;;;2.67;;
7338;SDS011;33747;49.524;8.390;2022-08-21T10:53:29;10.45;;;2.92;;
7338;SDS011;33747;49.524;8.390;2022-08-21T10:56:11;8.55;;;2.63;;
7338;SDS011;33747;49.524;8.390;2022-08-21T10:58:43;10.15;;;2.55;;
7338;SDS011;33747;49.524;8.390;2022-08-21T11:01:11;3.97;;;2.38;;
7338;SDS011;33747;49.524;8.390;2022-08-21T11:06:39;6.60;;;2.80;;
7338;SDS011;33747;49.524;8.390;2022-08-21T11:09:12;6.85;;;2.22;;
7338;SDS011;33747;49.524;8.390;2022-08-21T11:11:41;7.35;;;2.78;;
7338;SDS011;33747;49.524;8.390;2022-08-21T11:17:22;8.98;;;2.25;;
7338;SDS011;33747;49.524;8.390;2022-08-21T11:22:35;8.07;;;2.90;;
7338;SDS011;33747;49.524;8.390;2022-08-21T11:27:50;7.35;;;2.20;;
7338;SDS011;33747;49.524;8.390;2022-08-21T11:30:19;13.18;;;2.80;;
7338;SDS011;33747;49.524;8.390;2022-08-21T11:35:40;5.45;;;2.30;;
7338;SDS011;33747;49.524;8.390;2022-08-21T11:38:20;6.85;;;2.72;;
7338;SDS011;33747;49.524;8.390;2022-08-21T11:43:55;7.25;;;2.20;;
7338;SDS011;33747;49.524;8.390;2022-08-21T11:50:14;5.03;;;2.40;;
7338;SDS011;33747;49.524;8.390;2022-08-21T11:52:33;9.02;;;2.42;;
7338;SDS011;33747;49.524;8.390;2022-08-21T11:55:06;6.27;;;2.43;;
7338;SDS011;33747;49.524;8.390;2022-08-21T11:57:35;11.43;;;2.85;;
7338;SDS011;33747;49.524;8.390;2022-08-21T12:00:06;8.20;;;2.58;;
7338;SDS011;33747;49.524;8.390;2022-08-21T12:02:39;7.65;;;2.35;;
7338;SDS011;33747;49.524;8.390;2022-08-21T12:05:09;5.68;;;1.95;;
7338;SDS011;33747;49.524;8.390;2022-08-21T12:07:46;4.97;;;2.20;;
7338;SDS011;33747;49.524;8.390;2022-08-21T12:10:13;5.70;;;2.30;;
7338;SDS011;33747;49.524;8.390;2022-08-21T12:12:41;6.07;;;2.47;;
7338;SDS011;33747;49.524;8.390;2022-08-21T12:18:02;5.72;;;2.33;;
7338;SDS011;33747;49.524;8.390;2022-08-21T12:23:06;3.05;;;2.15;;
7338;SDS011;33747;49.524;8.390;2022-08-21T12:25:46;4.78;;;2.20;;
7338;SDS011;33747;49.524;8.390;2022-08-21T12:28:14;4.95;;;2.35;;
7338;SDS011;33747;49.524;8.390;2022-08-21T12:30:42;7.88;;;2.30;;
7338;SDS011;33747;49.524;8.390;2022-08-21T12:36:10;8.18;;;2.70;;
7338;SDS011;33747;49.524;8.390;2022-08-21T12:41:14;5.95;;;2.40;;
7338;SDS011;33747;49.524;8.390;2022-08-21T12:43:50;8.13;;;2.90;;
7338;SDS011;33747;49.524;8.390;2022-08-21T12:46:20;7.18;;;2.38;;
7338;SDS011;33747;49.524;8.390;2022-08-21T12:48:54;8.82;;;2.80;;
7338;SDS011;33747;49.524;8.390;2022-08-21T12:51:23;6.45;;;2.60;;
7338;SDS011;33747;49.524;8.390;2022-08-21T12:53:52;8.32;;;3.08;;
7338;SDS011;33747;49.524;8.390;2022-08-21T12:56:22;8.00;;;2.88;;
7338;SDS011;33747;49.524;8.390;2022-08-21T12:58:51;5.07;;;2.63;;
7338;SDS011;33747;49.524;8.390;2022-08-21T13:01:21;5.10;;;2.17;;
7338;SDS011;33747;49.524;8.390;2022-08-21T13:03:49;3.00;;;2.15;;
7338;SDS011;33747;49.524;8.390;2022-08-21T13:06:16;5.13;;;2.45;;
7338;SDS011;33747;49.524;8.390;2022-08-21T13:08:43;7.35;;;3.00;;
7338;SDS011;33747;49.524;8.390;2022-08-21T13:11:08;5.97;;;2.80;;
7338;SDS011;33747;49.524;8.390;2022-08-21T13:13:34;8.50;;;2.20;;
7338;SDS011;33747;49.524;8.390;2022-08-21T13:16:04;4.95;;;2.47;;
7338;SDS011;33747;49.524;8.390;2022-08-21T13:18:32;7.32;;;2.60;;
7338;SDS011;33747;49.524;8.390;2022-08-21T13:21:03;6.22;;;2.47;;
7338;SDS011;33747;49.524;8.390;2022-08-21T13:23:30;4.88;;;2.30;;
7338;SDS011;33747;49.524;8.390;2022-08-21T13:25:56;7.70;;;2.00;;
7338;SDS011;33747;49.524;8.390;2022-08-21T13:28:23;4.68;;;2.40;;
7338;SDS011;33747;49.524;8.390;2022-08-21T13:30:50;6.15;;;2.40;;
7338;SDS011;33747;49.524;8.390;2022-08-21T13:33:17;4.63;;;2.33;;
7338;SDS011;33747;49.524;8.390;2022-08-21T13:35:46;7.43;;;2.70;;
7338;SDS011;33747;49.524;8.390;2022-08-21T13:38:22;8.93;;;2.50;;
7338;SDS011;33747;49.524;8.390;2022-08-21T13:40:57;5.45;;;2.10;;
7338;SDS011;33747;49.524;8.390;2022-08-21T13:43:28;6.07;;;2.33;;
7338;SDS011;33747;49.524;8.390;2022-08-21T13:45:56;4.43;;;2.13;;
7338;SDS011;33747;49.524;8.390;2022-08-21T13:48:23;5.20;;;2.58;;
7338;SDS011;33747;49.524;8.390;2022-08-21T13:50:51;5.10;;;2.25;;
7338;SDS011;33747;49.524;8.390;2022-08-21T13:53:21;5.07;;;2.35;;
7338;SDS011;33747;49.524;8.390;2022-08-21T13:55:55;7.13;;;2.67;;
7338;SDS011;33747;49.524;8.390;2022-08-21T13:58:29;4.28;;;2.17;;
7338;SDS011;33747;49.524;8.390;2022-08-21T14:00:56;7.18;;;2.58;;
7338;SDS011;33747;49.524;8.390;2022-08-21T14:05:59;4.60;;;2.45;;
7338;SDS011;33747;49.524;8.390;2022-08-21T14:08:27;6.28;;;2.28;;
7338;SDS011;33747;49.524;8.390;2022-08-21T14:10:53;8.00;;;2.50;;
7338;SDS011;33747;49.524;8.390;2022-08-21T14:16:12;8.63;;;2.65;;
7338;SDS011;33747;49.524;8.390;2022-08-21T14:21:36;6.18;;;2.53;;
7338;SDS011;33747;49.524;8.390;2022-08-21T14:24:05;5.82;;;2.85;;
7338;SDS011;33747;49.524;8.390;2022-08-21T14:26:48;5.05;;;2.40;;
7338;SDS011;33747;49.524;8.390;2022-08-21T14:29:16;5.50;;;2.55;;
7338;SDS011;33747;49.524;8.390;2022-08-21T14:31:43;7.93;;;2.22;;
7338;SDS011;33747;49.524;8.390;2022-08-21T14:34:14;5.80;;;2.05;;
7338;SDS011;33747;49.524;8.390;2022-08-21T14:36:41;3.67;;;1.98;;
7338;SDS011;33747;49.524;8.390;2022-08-21T14:39:07;6.43;;;2.67;;
7338;SDS011;33747;49.524;8.390;2022-08-21T14:41:33;6.35;;;2.38;;
7338;SDS011;33747;49.524;8.390;2022-08-21T14:43:58;6.47;;;2.28;;
7338;SDS011;33747;49.524;8.390;2022-08-21T14:46:26;7.80;;;2.50;;
7338;SDS011;33747;49.524;8.390;2022-08-21T14:48:53;4.10;;;2.33;;
7338;SDS011;33747;49.524;8.390;2022-08-21T14:51:19;6.18;;;2.50;;
7338;SDS011;33747;49.524;8.390;2022-08-21T14:53:44;3.25;;;1.95;;
7338;SDS011;33747;49.524;8.390;2022-08-21T14:56:10;5.35;;;2.28;;
7338;SDS011;33747;49.524;8.390;2022-08-21T14:58:43;3.90;;;2.20;;
7338;SDS011;33747;49.524;8.390;2022-08-21T15:01:11;6.63;;;2.42;;
7338;SDS011;33747;49.524;8.390;2022-08-21T15:03:38;3.25;;;2.28;;
7338;SDS011;33747;49.524;8.390;2022-08-21T15:06:04;10.27;;;2.65;;
7338;SDS011;33747;49.524;8.390;2022-08-21T15:08:30;6.63;;;2.80;;
7338;SDS011;33747;49.524;8.390;2022-08-21T15:10:57;7.25;;;2.45;;
7338;SDS011;33747;49.524;8.390;2022-08-21T15:13:22;3.15;;;2.20;;
7338;SDS011;33747;49.524;8.390;2022-08-21T15:15:49;5.85;;;2.45;;
7338;SDS011;33747;49.524;8.390;2022-08-21T15:18:17;4.72;;;2.10;;
7338;SDS011;33747;49.524;8.390;2022-08-21T15:20:43;4.35;;;2.17;;
7338;SDS011;33747;49.524;8.390;2022-08-21T15:23:08;5.13;;;2.17;;
7338;SDS011;33747;49.524;8.390;2022-08-21T15:25:34;8.05;;;2.50;;
7338;SDS011;33747;49.524;8.390;2022-08-21T15:28:00;6.72;;;3.08;;
7338;SDS011;33747;49.524;8.390;2022-08-21T15:30:26;9.38;;;2.38;;
7338;SDS011;33747;49.524;8.390;2022-08-21T15:32:52;5.43;;;2.25;;
7338;SDS011;33747;49.524;8.390;2022-08-21T15:35:17;4.30;;;2.33;;
7338;SDS011;33747;49.524;8.390;2022-08-21T15:37:43;5.55;;;2.47;;
7338;SDS011;33747;49.524;8.390;2022-08-21T15:40:08;8.80;;;2.35;;
7338;SDS011;33747;49.524;8.390;2022-08-21T15:42:34;8.80;;;2.53;;
7338;SDS011;33747;49.524;8.390;2022-08-21T15:44:59;5.53;;;2.28;;
7338;SDS011;33747;49.524;8.390;2022-08-21T15:47:29;5.25;;;2.33;;
7338;SDS011;33747;49.524;8.390;2022-08-21T15:49:55;5.35;;;2.30;;
7338;SDS011;33747;49.524;8.390;2022-08-21T15:52:21;5.95;;;2.58;;
7338;SDS011;33747;49.524;8.390;2022-08-21T15:54:47;9.00;;;2.50;;
7338;SDS011;33747;49.524;8.390;2022-08-21T15:57:13;6.07;;;2.35;;
7338;SDS011;33747;49.524;8.390;2022-08-21T15:59:41;8.82;;;2.35;;
7338;SDS011;33747;49.524;8.390;2022-08-21T16:02:09;10.02;;;2.42;;
7338;SDS011;33747;49.524;8.390;2022-08-21T16:04:39;5.70;;;2.80;;
7338;SDS011;33747;49.524;8.390;2022-08-21T16:07:04;4.63;;;2.38;;
7338;SDS011;33747;49.524;8.390;2022-08-21T16:09:30;6.82;;;2.92;;
7338;SDS011;33747;49.524;8.390;2022-08-21T16:11:55;5.18;;;2.28;;
7338;SDS011;33747;49.524;8.390;2022-08-21T16:14:20;7.40;;;2.70;;
7338;SDS011;33747;49.524;8.390;2022-08-21T16:16:46;6.32;;;2.28;;
7338;SDS011;33747;49.524;8.390;2022-08-21T16:19:11;4.93;;;2.10;;
7338;SDS011;33747;49.524;8.390;2022-08-21T16:21:37;3.35;;;2.10;;
7338;SDS011;33747;49.524;8.390;2022-08-21T16:24:03;4.78;;;2.33;;
7338;SDS011;33747;49.524;8.390;2022-08-21T16:26:28;7.20;;;2.42;;
7338;SDS011;33747;49.524;8.390;2022-08-21T16:28:55;4.97;;;2.10;;